createdAt,value
2022-11-04T07:32:08.368Z,2.25
2022-11-04T07:34:35.354Z,2.30
2022-11-04T07:37:02.420Z,2.30
2022-11-04T07:39:29.449Z,2.22
2022-11-04T07:41:59.508Z,2.20
2022-11-04T07:44:26.937Z,2.65
2022-11-04T07:46:54.055Z,2.50
2022-11-04T07:49:21.130Z,2.22
2022-11-04T07:51:48.619Z,2.30
2022-11-04T07:54:15.690Z,2.47
2022-11-04T07:56:42.661Z,2.60
2022-11-04T07:59:11.238Z,2.40
2022-11-04T08:01:40.350Z,2.33
2022-11-04T08:04:07.850Z,2.85
2022-11-04T08:06:34.943Z,2.50
2022-11-04T08:09:02.105Z,2.38
2022-11-04T08:11:29.264Z,1.95
2022-11-04T08:13:56.388Z,1.90
2022-11-04T08:16:25.310Z,1.60
2022-11-04T08:18:53.936Z,1.67
2022-11-04T08:21:21.450Z,1.35
2022-11-04T08:23:51.303Z,1.88
2022-11-04T08:26:19.168Z,1.50
2022-11-04T08:28:46.721Z,1.60
2022-11-04T08:31:19.845Z,1.80
2022-11-04T08:33:47.947Z,1.88
2022-11-04T08:36:16.749Z,1.60
2022-11-04T08:38:45.433Z,1.50
2022-11-04T08:41:14.228Z,1.50
2022-11-04T08:43:41.368Z,1.50
2022-11-04T08:46:09.269Z,1.40
2022-11-04T08:48:37.496Z,1.52
2022-11-04T08:51:05.329Z,1.80
2022-11-04T08:53:32.381Z,1.80
2022-11-04T08:55:59.492Z,1.90
2022-11-04T08:58:26.499Z,1.95
2022-11-04T09:00:53.594Z,1.75
2022-11-04T09:03:21.023Z,1.70
2022-11-04T09:05:49.122Z,1.90
2022-11-04T09:08:17.176Z,1.90
2022-11-04T09:10:45.204Z,1.80
2022-11-04T09:13:12.996Z,2.00
2022-11-04T09:15:40.400Z,1.90
2022-11-04T09:18:07.717Z,1.73
2022-11-04T09:20:38.306Z,1.80
2022-11-04T09:23:05.818Z,1.88
2022-11-04T09:25:33.130Z,1.92
2022-11-04T09:28:03.719Z,1.77
2022-11-04T09:30:31.008Z,2.00
2022-11-04T09:32:58.543Z,2.00
2022-11-04T09:35:27.559Z,1.80
2022-11-04T09:37:54.959Z,2.00
2022-11-04T09:40:23.252Z,1.90
2022-11-04T09:42:53.392Z,1.80
2022-11-04T09:45:23.731Z,1.83
2022-11-04T09:47:52.974Z,1.87
2022-11-04T09:50:31.667Z,2.00
2022-11-04T09:53:04.875Z,1.95
2022-11-04T09:55:35.837Z,2.05
2022-11-04T09:58:04.347Z,2.15
2022-11-04T10:00:32.438Z,2.00
2022-11-04T10:03:09.060Z,2.30
2022-11-04T10:05:55.199Z,2.00
2022-11-04T10:08:37.911Z,2.37
2022-11-04T10:11:06.575Z,2.35
2022-11-04T10:13:52.626Z,1.95
2022-11-04T10:16:26.253Z,2.10
2022-11-04T10:19:05.926Z,2.45
2022-11-04T10:21:33.011Z,1.90
2022-11-04T10:24:00.003Z,2.30
2022-11-04T10:26:36.204Z,2.03
2022-11-04T10:29:07.613Z,1.80
2022-11-04T10:31:37.779Z,1.88
2022-11-04T10:34:21.406Z,1.92
2022-11-04T10:36:49.290Z,2.05
2022-11-04T10:39:27.869Z,2.20
2022-11-04T10:41:55.107Z,2.55
2022-11-04T10:44:27.087Z,2.10
2022-11-04T10:46:54.102Z,2.10
2022-11-04T10:49:39.746Z,2.30
2022-11-04T10:52:07.833Z,2.22
2022-11-04T10:54:39.756Z,1.90
2022-11-04T10:57:06.794Z,2.00
2022-11-04T10:59:49.351Z,2.20
2022-11-04T11:02:16.542Z,1.95
2022-11-04T11:04:45.437Z,2.30
2022-11-04T11:07:13.331Z,2.88
2022-11-04T11:09:43.365Z,2.60
2022-11-04T11:12:44.052Z,2.58
2022-11-04T11:15:00.464Z,2.60
2022-11-04T11:17:33.653Z,2.22
2022-11-04T11:20:06.030Z,2.70
2022-11-04T11:22:38.286Z,2.75
2022-11-04T11:25:24.235Z,2.80
2022-11-04T11:28:02.022Z,3.97
2022-11-04T11:30:31.999Z,3.28
2022-11-04T11:33:03.923Z,2.72
2022-11-04T11:35:41.253Z,2.38
2022-11-04T11:38:34.603Z,2.10
2022-11-04T11:41:24.317Z,2.15
2022-11-04T11:43:52.700Z,2.30
2022-11-04T11:46:23.233Z,2.03
2022-11-04T11:48:54.871Z,2.20
2022-11-04T11:51:30.716Z,2.23
2022-11-04T11:54:19.167Z,2.00
2022-11-04T11:57:12.611Z,2.10
2022-11-04T12:02:35.198Z,1.80
2022-11-04T12:10:56.645Z,1.60
2022-11-04T12:13:29.424Z,1.65
2022-11-04T12:16:21.085Z,3.63
2022-11-04T12:18:48.203Z,2.50
2022-11-04T12:21:27.034Z,2.50
2022-11-04T12:24:02.093Z,2.88
2022-11-04T12:26:41.442Z,2.75
2022-11-04T12:29:21.204Z,2.50
2022-11-04T12:32:07.733Z,2.58
2022-11-04T12:34:52.929Z,2.35
2022-11-04T12:37:26.459Z,2.60
2022-11-04T12:40:08.179Z,2.38
2022-11-04T12:42:38.212Z,2.90
2022-11-04T12:45:25.033Z,2.65
2022-11-04T12:47:54.121Z,2.30
2022-11-04T12:50:38.266Z,2.17
2022-11-04T12:53:08.640Z,2.40
2022-11-04T12:55:43.969Z,2.10
2022-11-04T12:58:17.327Z,2.72
2022-11-04T13:00:45.772Z,2.60
2022-11-04T13:03:18.562Z,2.33
2022-11-04T13:05:54.642Z,2.30
2022-11-04T13:08:43.667Z,2.40
2022-11-04T13:11:30.947Z,2.38
2022-11-04T13:14:01.766Z,2.55
2022-11-04T13:16:30.077Z,1.98
2022-11-04T13:18:59.914Z,1.40
2022-11-04T13:21:31.474Z,1.60
2022-11-04T13:24:06.712Z,1.42
2022-11-04T13:26:34.129Z,1.90
2022-11-04T13:29:27.656Z,1.95
2022-11-04T13:31:54.720Z,1.73
2022-11-04T13:34:45.190Z,1.67
2022-11-04T13:37:31.134Z,1.77
2022-11-04T13:40:01.509Z,2.40
2022-11-04T13:42:51.881Z,6.70
2022-11-04T13:45:20.450Z,9.20
2022-11-04T13:47:53.328Z,6.43
2022-11-04T13:50:29.742Z,5.80
2022-11-04T13:52:56.822Z,6.03
2022-11-04T13:55:23.859Z,6.25
2022-11-04T13:57:58.918Z,5.00
2022-11-04T14:00:26.955Z,5.57
2022-11-04T14:03:02.463Z,5.00
2022-11-04T14:05:31.061Z,4.50
2022-11-04T14:08:00.991Z,4.27
2022-11-04T14:10:38.595Z,4.68
